Time;durP1;ratioP1;P1;durP2;ratioP2;P2;SDS_P1;SDS_P2;PMS_P1;PMS_P2;Temp;Humidity;BMP_temperature;BMP_pressure;BME280_temperature;BME280_humidity;BME280_pressure;Samples;Min_cycle;Max_cycle;Signal;HPM_P1;HPM_P2
2024/01/03 00:00:28;;;;;;;16.80;15.43;;;11.60;99.90;;;;;;4928839;29;20200;-77
2024/01/03 00:02:56;;;;;;;17.00;15.00;;;11.50;99.90;;;;;;4921040;29;20237;-77
2024/01/03 00:05:29;;;;;;;17.67;15.00;;;11.40;99.90;;;;;;4942999;29;20208;-78
2024/01/03 00:07:56;;;;;;;16.40;15.13;;;11.40;99.90;;;;;;4934262;29;20204;-78
2024/01/03 00:10:49;;;;;;;16.93;15.30;;;11.30;99.90;;;;;;4944266;29;20239;-76
2024/01/03 00:13:31;;;;;;;16.77;14.97;;;11.40;99.90;;;;;;4927418;29;20322;-79
2024/01/03 00:15:59;;;;;;;15.83;14.43;;;11.40;99.90;;;;;;4911361;29;20221;-77
2024/01/03 00:18:45;;;;;;;16.07;14.60;;;11.40;99.90;;;;;;4919792;29;20197;-76
2024/01/03 00:21:22;;;;;;;15.30;14.30;;;11.40;99.90;;;;;;4955741;29;20615;-77
2024/01/03 00:24:03;;;;;;;17.10;15.30;;;11.40;99.90;;;;;;4939369;29;20207;-76
2024/01/03 00:26:32;;;;;;;15.77;14.57;;;11.40;99.90;;;;;;4944166;29;20193;-77
2024/01/03 00:29:00;;;;;;;15.83;14.50;;;11.50;99.90;;;;;;4937960;29;20192;-77
2024/01/03 00:31:44;;;;;;;16.73;15.07;;;11.40;99.90;;;;;;4944896;29;20330;-77
2024/01/03 00:34:20;;;;;;;22.50;15.43;;;11.30;99.90;;;;;;4952884;29;20210;-81
2024/01/03 00:36:50;;;;;;;17.17;15.57;;;11.30;99.90;;;;;;4939784;29;20277;-79
2024/01/03 00:39:38;;;;;;;16.13;14.90;;;11.20;99.90;;;;;;4934143;29;20192;-81
2024/01/03 00:42:05;;;;;;;17.20;15.60;;;11.20;99.90;;;;;;4901824;29;20201;-80
2024/01/03 00:44:32;;;;;;;20.60;15.57;;;11.10;99.90;;;;;;4900174;29;20224;-79
2024/01/03 00:46:59;;;;;;;16.37;14.97;;;11.20;99.90;;;;;;4935760;29;20208;-77
2024/01/03 00:49:26;;;;;;;16.10;14.70;;;11.20;99.90;;;;;;4910311;29;20212;-81
2024/01/03 00:51:54;;;;;;;16.07;14.30;;;11.20;99.90;;;;;;4935126;29;20252;-77
2024/01/03 00:54:24;;;;;;;15.47;14.03;;;11.00;99.90;;;;;;4920300;29;20228;-78
2024/01/03 00:56:52;;;;;;;15.47;14.27;;;10.90;99.90;;;;;;4920014;29;20216;-77
2024/01/03 00:59:19;;;;;;;15.80;14.53;;;10.80;99.90;;;;;;4919367;29;20220;-78
2024/01/03 01:01:47;;;;;;;16.33;14.53;;;10.90;99.90;;;;;;4920796;29;20552;-78
2024/01/03 01:04:15;;;;;;;16.10;14.80;;;10.80;99.90;;;;;;4919167;29;20223;-77
2024/01/03 01:06:42;;;;;;;15.70;14.33;;;10.60;99.90;;;;;;4919368;29;20204;-78
2024/01/03 01:09:09;;;;;;;15.73;14.23;;;10.40;99.90;;;;;;4935009;29;20207;-76
2024/01/03 01:11:36;;;;;;;15.60;14.57;;;10.40;99.90;;;;;;4934598;29;20196;-76
2024/01/03 01:14:04;;;;;;;16.03;14.57;;;10.40;99.90;;;;;;4935525;28;20236;-76
2024/01/03 01:16:30;;;;;;;16.37;14.80;;;10.50;99.90;;;;;;4928620;29;20415;-76
2024/01/03 01:18:57;;;;;;;16.10;14.60;;;10.40;99.90;;;;;;4918240;29;20212;-77
2024/01/03 01:21:25;;;;;;;15.20;14.10;;;10.30;99.90;;;;;;4934855;29;20192;-76
2024/01/03 01:23:52;;;;;;;15.13;13.83;;;10.20;99.90;;;;;;4934788;29;20291;-77
2024/01/03 01:26:19;;;;;;;15.60;14.00;;;10.20;99.90;;;;;;4935190;29;20227;-76
2024/01/03 01:28:47;;;;;;;14.63;13.40;;;10.10;99.90;;;;;;4933595;29;20204;-74
2024/01/03 01:31:14;;;;;;;17.97;13.20;;;10.10;99.90;;;;;;4933438;29;20610;-75
2024/01/03 01:33:41;;;;;;;15.07;13.47;;;10.10;99.90;;;;;;4916705;29;20760;-76
2024/01/03 01:36:08;;;;;;;15.33;13.90;;;10.20;99.90;;;;;;4916836;29;20200;-76
2024/01/03 01:38:37;;;;;;;14.90;13.80;;;10.30;99.90;;;;;;4897000;29;20752;-76
2024/01/03 01:41:04;;;;;;;15.13;13.83;;;10.20;99.90;;;;;;4891656;29;20685;-77
2024/01/03 01:43:32;;;;;;;14.87;13.50;;;10.30;99.90;;;;;;4915149;29;20229;-79
2024/01/03 01:45:59;;;;;;;15.00;13.67;;;10.30;99.90;;;;;;4902836;29;20200;-78
2024/01/03 01:48:26;;;;;;;15.20;13.90;;;10.30;99.90;;;;;;4919029;29;20224;-77
2024/01/03 01:50:53;;;;;;;15.00;13.50;;;10.40;99.90;;;;;;4934615;29;20244;-77
2024/01/03 01:53:21;;;;;;;15.50;14.10;;;10.40;99.90;;;;;;4935127;29;20236;-78
2024/01/03 01:55:48;;;;;;;16.87;14.00;;;10.40;99.90;;;;;;4949884;28;20223;-76
2024/01/03 01:58:16;;;;;;;14.90;13.50;;;10.40;99.90;;;;;;4918130;29;20677;-78
2024/01/03 02:00:43;;;;;;;16.53;14.93;;;10.40;99.90;;;;;;4934034;29;20207;-79
2024/01/03 02:03:11;;;;;;;18.53;14.90;;;10.50;99.90;;;;;;4912612;29;20216;-78
2024/01/03 02:05:39;;;;;;;15.23;13.87;;;10.40;99.90;;;;;;4918684;29;20200;-76
2024/01/03 02:08:10;;;;;;;15.20;13.80;;;10.50;99.90;;;;;;4933496;29;20208;-80
2024/01/03 02:10:38;;;;;;;15.10;13.60;;;10.40;99.90;;;;;;4896550;29;20265;-77
2024/01/03 02:13:06;;;;;;;15.07;13.57;;;10.40;99.90;;;;;;4918327;29;20232;-80
2024/01/03 02:15:33;;;;;;;15.33;14.03;;;10.30;99.90;;;;;;4931949;29;20592;-81
2024/01/03 02:18:01;;;;;;;15.93;14.30;;;10.20;99.90;;;;;;4947346;29;20671;-78
2024/01/03 02:20:33;;;;;;;15.20;13.60;;;10.10;99.90;;;;;;4928683;29;20212;-74
2024/01/03 02:23:01;;;;;;;14.57;13.33;;;10.20;99.90;;;;;;4910729;29;20623;-77
2024/01/03 02:25:28;;;;;;;13.83;12.80;;;10.00;99.90;;;;;;4932141;29;20200;-77
2024/01/03 02:27:55;;;;;;;15.90;12.90;;;9.90;99.90;;;;;;4950715;28;20198;-76
2024/01/03 02:30:22;;;;;;;13.80;12.70;;;9.80;99.90;;;;;;4930614;29;20204;-77
2024/01/03 02:32:49;;;;;;;13.50;12.60;;;9.70;99.90;;;;;;4930774;29;20404;-75
2024/01/03 02:35:16;;;;;;;14.00;12.80;;;9.70;99.90;;;;;;4935384;29;20668;-76
2024/01/03 02:37:44;;;;;;;19.07;13.20;;;9.80;99.90;;;;;;4918312;29;20230;-76
2024/01/03 02:40:11;;;;;;;14.47;12.97;;;9.80;99.90;;;;;;4926228;29;20200;-75
2024/01/03 02:42:38;;;;;;;13.97;12.77;;;9.80;99.90;;;;;;4947266;28;20207;-76
2024/01/03 02:45:05;;;;;;;14.93;13.60;;;9.90;99.90;;;;;;4934634;29;20700;-76
2024/01/03 02:47:33;;;;;;;13.63;12.53;;;9.90;99.90;;;;;;4952160;28;20190;-76
2024/01/03 02:50:01;;;;;;;14.10;12.87;;;9.90;99.90;;;;;;4948229;28;20220;-76
2024/01/03 02:52:28;;;;;;;14.83;13.67;;;9.90;99.90;;;;;;4947923;28;20200;-77
2024/01/03 02:54:55;;;;;;;14.63;13.17;;;10.00;99.90;;;;;;4929530;29;20270;-77
2024/01/03 02:57:25;;;;;;;14.27;13.10;;;10.00;99.90;;;;;;4946224;28;20203;-77
2024/01/03 02:59:53;;;;;;;14.57;13.13;;;10.00;99.90;;;;;;4951164;28;20203;-75
2024/01/03 03:06:03;;;;;;;13.43;12.43;;;10.20;99.90;;;;;;4932058;29;20203;-75
2024/01/03 03:08:31;;;;;;;13.97;12.67;;;10.40;99.90;;;;;;4944793;28;20272;-76
2024/01/03 03:10:58;;;;;;;15.27;13.47;;;10.30;99.90;;;;;;4952896;28;20211;-74
2024/01/03 03:13:27;;;;;;;14.00;12.80;;;10.30;99.90;;;;;;4937580;29;20215;-77
2024/01/03 03:15:54;;;;;;;13.80;12.70;;;10.30;99.90;;;;;;4931591;29;20196;-78
2024/01/03 03:18:21;;;;;;;13.30;12.40;;;10.20;99.90;;;;;;4921058;29;20300;-87
2024/01/03 03:20:48;;;;;;;14.37;13.17;;;10.20;99.90;;;;;;4932448;29;20259;-78
2024/01/03 03:23:16;;;;;;;14.40;13.37;;;10.20;99.90;;;;;;4939819;29;20291;-79
2024/01/03 03:25:43;;;;;;;14.43;13.30;;;10.20;99.90;;;;;;4941813;28;20688;-78
2024/01/03 03:28:10;;;;;;;13.63;12.53;;;10.20;99.90;;;;;;4927067;29;20244;-78
2024/01/03 03:30:37;;;;;;;13.47;12.27;;;10.20;99.90;;;;;;4938246;29;20214;-76
2024/01/03 03:33:04;;;;;;;12.57;11.87;;;10.10;99.90;;;;;;4937353;29;20219;-77
2024/01/03 03:35:31;;;;;;;13.43;12.40;;;10.00;99.90;;;;;;4950079;28;20651;-76
2024/01/03 03:37:58;;;;;;;14.00;12.80;;;9.90;99.90;;;;;;4950553;29;20220;-77
2024/01/03 03:40:25;;;;;;;13.70;12.60;;;9.80;99.90;;;;;;4931420;29;20631;-81
2024/01/03 03:42:52;;;;;;;12.70;11.80;;;9.80;99.90;;;;;;4935410;29;20649;-77
2024/01/03 03:45:20;;;;;;;13.33;12.20;;;9.80;99.90;;;;;;4933706;29;20216;-79
2024/01/03 03:47:47;;;;;;;12.60;11.80;;;9.70;99.90;;;;;;4939660;29;20556;-78
2024/01/03 03:50:14;;;;;;;12.80;11.90;;;9.80;99.90;;;;;;4927540;29;20195;-77
2024/01/03 03:52:41;;;;;;;13.57;12.33;;;9.70;99.90;;;;;;4938637;29;20198;-78
2024/01/03 03:55:09;;;;;;;13.00;11.97;;;9.60;99.90;;;;;;4938593;29;20214;-76
2024/01/03 03:57:37;;;;;;;13.80;12.70;;;9.70;99.90;;;;;;4954755;28;20206;-75
2024/01/03 04:00:04;;;;;;;13.67;12.57;;;9.70;99.90;;;;;;4932237;29;20650;-75
2024/01/03 04:02:39;;;;;;;15.03;13.37;;;9.90;99.90;;;;;;4934870;29;20211;-77
2024/01/03 04:05:07;;;;;;;14.37;12.90;;;9.90;99.90;;;;;;4947191;28;20401;-88
2024/01/03 04:07:34;;;;;;;13.10;12.40;;;10.00;99.90;;;;;;4937435;29;20193;-76
2024/01/03 04:10:01;;;;;;;13.67;12.47;;;10.00;99.90;;;;;;4930349;29;20200;-77
2024/01/03 04:12:28;;;;;;;14.23;12.90;;;10.00;99.90;;;;;;4930807;29;20228;-78
2024/01/03 04:14:55;;;;;;;12.93;12.13;;;10.00;99.90;;;;;;4917918;29;20211;-76
2024/01/03 04:17:22;;;;;;;13.23;12.33;;;10.00;99.90;;;;;;4916574;29;20260;-77
2024/01/03 04:19:51;;;;;;;14.43;13.03;;;10.10;99.90;;;;;;4901897;29;20208;-79
2024/01/03 04:22:19;;;;;;;14.17;12.70;;;10.00;99.90;;;;;;4901503;29;20196;-79
2024/01/03 04:24:46;;;;;;;13.70;12.80;;;9.90;99.90;;;;;;4917842;29;20538;-76
2024/01/03 04:27:13;;;;;;;13.97;12.60;;;9.90;99.90;;;;;;4901657;29;20196;-76
2024/01/03 04:29:40;;;;;;;14.00;12.70;;;9.90;99.90;;;;;;4915724;29;20563;-79
2024/01/03 04:32:07;;;;;;;14.17;12.97;;;9.90;99.90;;;;;;4927184;29;20697;-76
2024/01/03 04:34:36;;;;;;;13.10;11.93;;;9.80;99.90;;;;;;4914865;29;20196;-78
2024/01/03 04:37:05;;;;;;;13.93;12.63;;;9.80;99.90;;;;;;4932945;29;20348;-79
2024/01/03 04:39:31;;;;;;;17.27;13.03;;;9.80;99.90;;;;;;4902465;29;20208;-75
2024/01/03 04:41:59;;;;;;;14.67;12.90;;;9.70;99.90;;;;;;4913853;29;20692;-77
2024/01/03 04:44:26;;;;;;;14.37;12.93;;;9.70;99.90;;;;;;4915638;29;20317;-77
2024/01/03 04:46:53;;;;;;;13.47;12.27;;;9.70;99.90;;;;;;4917064;29;20185;-79
2024/01/03 04:49:22;;;;;;;15.40;13.97;;;9.90;99.90;;;;;;4921910;29;20201;-77
2024/01/03 04:51:49;;;;;;;14.23;13.10;;;9.80;99.90;;;;;;4911877;29;20747;-88
2024/01/03 04:54:18;;;;;;;15.40;13.73;;;9.90;99.90;;;;;;4909765;29;20505;-76
2024/01/03 04:56:45;;;;;;;13.70;12.67;;;9.90;99.90;;;;;;4914519;29;20265;-77
2024/01/03 04:59:12;;;;;;;14.40;13.07;;;9.90;99.90;;;;;;4931890;29;20250;-77
2024/01/03 05:01:42;;;;;;;15.73;14.00;;;10.00;99.90;;;;;;4930482;29;20208;-77
2024/01/03 05:04:10;;;;;;;15.00;13.37;;;10.10;99.90;;;;;;4896845;29;20216;-78
2024/01/03 05:06:37;;;;;;;17.77;13.90;;;10.10;99.90;;;;;;4923459;29;20725;-77
2024/01/03 05:09:04;;;;;;;15.27;13.77;;;10.00;99.90;;;;;;4890775;29;20310;-76
2024/01/03 05:11:32;;;;;;;14.10;13.00;;;10.00;99.90;;;;;;4912621;29;20189;-83
2024/01/03 05:13:59;;;;;;;14.70;13.40;;;9.90;99.90;;;;;;4929835;29;20330;-79
2024/01/03 05:16:27;;;;;;;15.07;13.50;;;10.00;99.90;;;;;;4937189;29;20198;-76
2024/01/03 05:18:54;;;;;;;14.50;13.50;;;10.00;99.90;;;;;;4952956;29;20777;-77
2024/01/03 05:21:21;;;;;;;14.13;13.00;;;10.00;99.90;;;;;;4941973;28;20251;-78
2024/01/03 05:23:48;;;;;;;15.73;12.87;;;10.10;99.90;;;;;;4933105;29;20692;-77
2024/01/03 05:26:15;;;;;;;14.07;12.70;;;10.20;99.90;;;;;;4941878;28;20207;-77
2024/01/03 05:28:42;;;;;;;13.90;12.60;;;10.10;99.90;;;;;;4952853;28;20752;-77
2024/01/03 05:31:10;;;;;;;14.43;13.13;;;10.10;99.90;;;;;;4938288;28;20196;-80
2024/01/03 05:33:37;;;;;;;13.73;12.60;;;10.20;99.90;;;;;;4955877;29;20332;-77
2024/01/03 05:36:04;;;;;;;13.83;12.73;;;10.10;99.90;;;;;;4935795;28;20285;-77
2024/01/03 05:38:35;;;;;;;13.70;12.73;;;10.20;99.90;;;;;;4950905;28;20239;-76
2024/01/03 05:41:02;;;;;;;13.40;12.40;;;10.20;99.90;;;;;;4947352;28;20176;-78
2024/01/03 05:43:32;;;;;;;14.23;12.80;;;10.20;99.90;;;;;;4925559;29;20199;-77
2024/01/03 05:45:59;;;;;;;13.67;12.67;;;10.30;99.90;;;;;;4957443;28;20227;-77
2024/01/03 05:48:27;;;;;;;13.50;12.50;;;10.40;99.90;;;;;;4927551;29;20193;-77
2024/01/03 05:50:54;;;;;;;14.33;13.10;;;10.40;99.90;;;;;;4944983;29;20230;-78
2024/01/03 05:53:22;;;;;;;13.77;12.67;;;10.40;99.90;;;;;;4935760;29;20731;-76
2024/01/03 05:55:49;;;;;;;15.00;12.70;;;10.40;99.90;;;;;;4952035;29;20204;-76
2024/01/03 05:58:16;;;;;;;14.10;13.20;;;10.40;99.90;;;;;;4952951;28;20226;-76
2024/01/03 06:00:43;;;;;;;14.13;13.00;;;10.40;99.90;;;;;;4943378;28;20199;-78
2024/01/03 06:03:10;;;;;;;14.90;13.73;;;10.40;99.90;;;;;;4937199;29;20206;-75
2024/01/03 06:05:37;;;;;;;15.33;13.80;;;10.30;99.90;;;;;;4938380;29;20698;-77
2024/01/03 06:08:05;;;;;;;13.83;12.73;;;10.40;99.90;;;;;;4937018;29;20207;-79
2024/01/03 06:10:32;;;;;;;14.70;13.47;;;10.40;99.90;;;;;;4939061;29;20663;-76
2024/01/03 06:12:59;;;;;;;14.90;13.83;;;10.30;99.90;;;;;;4918498;29;20239;-76
2024/01/03 06:15:29;;;;;;;13.63;12.83;;;10.30;99.90;;;;;;4918817;29;20243;-76
2024/01/03 06:17:56;;;;;;;13.80;12.80;;;10.40;99.90;;;;;;4917698;29;20272;-77
2024/01/03 06:20:23;;;;;;;14.77;13.23;;;10.30;99.90;;;;;;4927431;29;20207;-76
2024/01/03 06:22:50;;;;;;;13.37;12.40;;;10.40;99.90;;;;;;4915336;29;20215;-76
2024/01/03 06:25:17;;;;;;;13.63;12.77;;;10.40;99.90;;;;;;4898581;29;20276;-76
2024/01/03 06:27:44;;;;;;;14.40;13.20;;;10.40;99.90;;;;;;4913828;29;20197;-77
2024/01/03 06:30:12;;;;;;;13.47;12.63;;;10.40;99.90;;;;;;4933866;29;20233;-76
2024/01/03 06:32:39;;;;;;;13.50;12.60;;;10.40;99.90;;;;;;4930905;29;20726;-77
2024/01/03 06:35:06;;;;;;;13.90;12.90;;;10.30;99.90;;;;;;4884760;29;20315;-78
2024/01/03 06:37:33;;;;;;;14.00;13.10;;;10.30;99.90;;;;;;4908177;29;20234;-82
2024/01/03 06:40:00;;;;;;;13.60;12.80;;;10.30;99.90;;;;;;4920301;29;20208;-76
2024/01/03 06:42:28;;;;;;;13.40;12.50;;;10.30;99.90;;;;;;4916767;29;20677;-80
2024/01/03 06:44:57;;;;;;;14.10;13.00;;;10.40;99.90;;;;;;4932378;29;20220;-76
2024/01/03 06:47:24;;;;;;;14.47;13.10;;;10.30;99.90;;;;;;4934373;29;20291;-78
2024/01/03 06:49:51;;;;;;;14.37;13.33;;;10.30;99.90;;;;;;4904612;29;20241;-77
2024/01/03 06:52:18;;;;;;;13.90;13.10;;;10.30;99.90;;;;;;4933249;29;20294;-78
2024/01/03 06:54:45;;;;;;;14.13;13.10;;;10.30;99.90;;;;;;4940603;29;20202;-79
2024/01/03 06:57:12;;;;;;;13.90;12.70;;;10.20;99.90;;;;;;4949574;29;20212;-76
2024/01/03 06:59:40;;;;;;;13.90;13.00;;;10.10;99.90;;;;;;4915566;29;20200;-76
2024/01/03 07:02:07;;;;;;;13.70;12.90;;;10.10;99.90;;;;;;4913234;29;20212;-76
2024/01/03 07:04:34;;;;;;;13.97;13.00;;;10.20;99.90;;;;;;4916284;29;20224;-78
2024/01/03 07:07:01;;;;;;;13.87;12.93;;;10.10;99.90;;;;;;4934178;29;20211;-77
2024/01/03 07:09:28;;;;;;;13.70;12.80;;;10.20;99.90;;;;;;4914222;29;20237;-77
2024/01/03 07:11:56;;;;;;;13.33;12.53;;;10.20;99.90;;;;;;4918544;29;20235;-81
2024/01/03 07:14:24;;;;;;;14.03;12.90;;;10.20;99.90;;;;;;4933253;29;20221;-76
2024/01/03 07:16:51;;;;;;;13.70;12.90;;;10.10;99.90;;;;;;4931171;29;20713;-78
2024/01/03 07:19:18;;;;;;;13.90;13.00;;;10.00;99.90;;;;;;4899404;29;20708;-76
2024/01/03 07:21:45;;;;;;;13.97;12.97;;;10.00;99.90;;;;;;4913766;29;20212;-75
2024/01/03 07:24:12;;;;;;;14.47;13.00;;;10.10;99.90;;;;;;4914589;29;20268;-78
2024/01/03 07:26:39;;;;;;;14.30;13.20;;;10.10;99.90;;;;;;4900012;29;20205;-76
2024/01/03 07:29:07;;;;;;;14.07;13.17;;;10.00;99.90;;;;;;4914992;29;20658;-91
2024/01/03 07:31:35;;;;;;;14.00;13.20;;;10.10;99.90;;;;;;4914776;29;20576;-76
2024/01/03 07:34:01;;;;;;;14.97;13.97;;;10.10;99.90;;;;;;4917867;29;20239;-79
2024/01/03 07:36:29;;;;;;;14.33;13.37;;;10.00;99.90;;;;;;4934855;29;20665;-76
2024/01/03 07:38:58;;;;;;;14.57;13.20;;;9.90;99.90;;;;;;4914969;29;20745;-77
2024/01/03 07:41:25;;;;;;;16.13;14.93;;;9.90;99.90;;;;;;4920318;29;20212;-79
2024/01/03 07:43:52;;;;;;;14.10;13.20;;;9.80;99.90;;;;;;4934544;29;20303;-76
2024/01/03 07:46:20;;;;;;;16.03;14.70;;;9.90;99.90;;;;;;4915668;29;20225;-77
2024/01/03 07:48:47;;;;;;;18.53;16.63;;;9.80;99.90;;;;;;4913990;29;20204;-78
2024/01/03 07:51:17;;;;;;;14.23;13.17;;;9.90;99.90;;;;;;4903735;29;20248;-78
2024/01/03 07:53:45;;;;;;;13.77;12.80;;;9.90;99.90;;;;;;4931578;29;20193;-77
2024/01/03 07:56:12;;;;;;;13.57;12.47;;;9.80;99.90;;;;;;4923617;29;20299;-76
2024/01/03 07:58:39;;;;;;;13.00;12.30;;;9.80;99.90;;;;;;4923524;29;20204;-77
2024/01/03 08:01:09;;;;;;;12.00;11.40;;;9.60;99.90;;;;;;4934731;29;20854;-78
2024/01/03 08:03:36;;;;;;;12.17;11.20;;;9.60;99.90;;;;;;4921210;29;20200;-76
2024/01/03 08:06:04;;;;;;;12.47;11.50;;;9.50;99.90;;;;;;4920404;29;20291;-77
2024/01/03 08:08:33;;;;;;;11.67;10.97;;;9.40;99.90;;;;;;4920633;29;20196;-76
2024/01/03 08:11:00;;;;;;;11.83;10.80;;;9.40;99.90;;;;;;4919291;29;20342;-79
2024/01/03 08:13:27;;;;;;;12.07;11.37;;;9.30;99.90;;;;;;4942892;28;20254;-78
2024/01/03 08:15:54;;;;;;;12.70;10.80;;;9.30;99.90;;;;;;4967984;28;20203;-77
2024/01/03 08:18:21;;;;;;;14.27;11.00;;;9.30;99.90;;;;;;4942858;29;20233;-78
2024/01/03 08:20:48;;;;;;;10.37;9.73;;;9.30;99.90;;;;;;4946524;29;20211;-79
2024/01/03 08:23:15;;;;;;;11.53;10.50;;;9.20;99.90;;;;;;4953822;29;20307;-79
2024/01/03 08:25:42;;;;;;;10.50;9.80;;;9.20;99.90;;;;;;4939634;29;20278;-78
2024/01/03 08:28:11;;;;;;;11.10;10.13;;;9.20;99.90;;;;;;4947812;29;20695;-78
2024/01/03 08:30:38;;;;;;;10.50;9.80;;;9.30;99.90;;;;;;4931374;29;20204;-80
2024/01/03 08:33:05;;;;;;;11.80;10.77;;;9.30;99.90;;;;;;4915006;29;20224;-77
2024/01/03 08:35:32;;;;;;;12.40;10.27;;;9.40;99.90;;;;;;4927869;29;20279;-75
2024/01/03 08:37:59;;;;;;;11.50;10.60;;;9.50;99.90;;;;;;4931999;29;20758;-78
2024/01/03 08:40:26;;;;;;;11.53;10.63;;;9.60;99.90;;;;;;4949468;29;20681;-77
2024/01/03 08:42:53;;;;;;;12.40;11.30;;;9.70;99.90;;;;;;4936594;29;20234;-79
2024/01/03 08:45:20;;;;;;;14.03;11.23;;;9.80;99.90;;;;;;4952529;29;20228;-76
2024/01/03 08:47:47;;;;;;;15.90;10.90;;;9.80;99.90;;;;;;4952278;29;20208;-77
2024/01/03 08:50:17;;;;;;;11.83;10.90;;;9.80;99.90;;;;;;4937413;29;20294;-77
2024/01/03 08:52:45;;;;;;;12.77;11.60;;;9.80;99.90;;;;;;4933754;29;20252;-77
2024/01/03 08:55:12;;;;;;;12.13;11.43;;;9.90;99.90;;;;;;4950029;29;20747;-78
2024/01/03 08:57:40;;;;;;;12.67;11.87;;;10.00;99.90;;;;;;4936693;29;20672;-78
2024/01/03 09:00:08;;;;;;;13.00;11.97;;;10.10;99.90;;;;;;4920611;29;20195;-78
2024/01/03 09:02:35;;;;;;;13.00;12.30;;;10.00;99.90;;;;;;4937156;29;21002;-78
2024/01/03 09:05:03;;;;;;;13.40;12.60;;;10.00;99.90;;;;;;4951533;28;20315;-77
2024/01/03 09:07:30;;;;;;;13.03;12.33;;;9.90;99.90;;;;;;4937848;29;20191;-77
2024/01/03 09:09:56;;;;;;;13.30;12.50;;;9.90;99.90;;;;;;4949361;29;20212;-77
2024/01/03 09:12:24;;;;;;;12.60;12.00;;;9.80;99.90;;;;;;4932709;29;20240;-87
2024/01/03 09:14:51;;;;;;;12.53;11.87;;;9.70;99.90;;;;;;4917437;29;20615;-77
2024/01/03 09:17:18;;;;;;;12.80;12.00;;;9.60;99.90;;;;;;4917666;29;20208;-78
2024/01/03 09:19:45;;;;;;;12.60;11.90;;;9.50;99.90;;;;;;4917453;29;20211;-78
2024/01/03 09:22:15;;;;;;;12.43;11.73;;;9.40;99.90;;;;;;4915545;29;20227;-77
2024/01/03 09:24:42;;;;;;;12.50;11.70;;;9.40;99.90;;;;;;4917221;29;20200;-78
2024/01/03 09:27:09;;;;;;;12.00;11.40;;;9.40;99.90;;;;;;4929953;29;20200;-76
2024/01/03 09:29:36;;;;;;;12.57;11.87;;;9.40;99.90;;;;;;4925384;29;20247;-77
2024/01/03 09:32:06;;;;;;;12.50;11.80;;;9.30;99.90;;;;;;4932351;29;20215;-81
2024/01/03 09:34:39;;;;;;;12.23;11.53;;;9.30;99.90;;;;;;4913816;29;20228;-79
2024/01/03 09:37:06;;;;;;;12.30;11.50;;;9.20;99.90;;;;;;4930358;29;20236;-76
2024/01/03 09:39:33;;;;;;;12.40;11.70;;;9.30;99.90;;;;;;4922770;29;20264;-75
2024/01/03 09:42:01;;;;;;;12.00;11.20;;;9.30;99.90;;;;;;4894046;29;20220;-78
2024/01/03 09:44:29;;;;;;;11.50;10.90;;;9.30;99.90;;;;;;4932909;29;20212;-76
2024/01/03 09:46:56;;;;;;;12.07;11.30;;;9.30;99.90;;;;;;4947112;29;20721;-76
2024/01/03 09:49:24;;;;;;;11.73;11.03;;;9.30;99.90;;;;;;4937973;29;20485;-79
2024/01/03 09:51:52;;;;;;;11.27;10.50;;;9.20;99.90;;;;;;4930868;29;20200;-77
2024/01/03 09:54:19;;;;;;;11.57;10.77;;;9.20;99.90;;;;;;4916103;29;20248;-75
2024/01/03 09:56:47;;;;;;;11.03;10.33;;;9.20;99.90;;;;;;4908227;29;20252;-76
2024/01/03 09:59:17;;;;;;;12.07;11.07;;;9.20;99.90;;;;;;4919037;29;20213;-78
2024/01/03 10:01:58;;;;;;;11.33;10.60;;;9.20;99.90;;;;;;4913887;29;20251;-79
2024/01/03 10:04:26;;;;;;;11.63;10.53;;;9.10;99.90;;;;;;4916620;29;20201;-76
2024/01/03 10:06:54;;;;;;;11.63;10.70;;;9.20;99.90;;;;;;4918562;29;20208;-77
2024/01/03 10:09:22;;;;;;;11.67;10.67;;;9.20;99.90;;;;;;4917670;29;20211;-81
2024/01/03 10:11:53;;;;;;;11.97;10.83;;;9.20;99.90;;;;;;4897442;29;20303;-76
2024/01/03 10:14:22;;;;;;;12.23;11.23;;;9.20;99.90;;;;;;4913838;29;20264;-77
2024/01/03 10:16:52;;;;;;;12.30;11.30;;;9.30;99.90;;;;;;4915805;29;20212;-77
2024/01/03 10:19:20;;;;;;;11.80;10.80;;;9.30;99.90;;;;;;4932253;29;20212;-76
2024/01/03 10:21:50;;;;;;;11.57;10.80;;;9.40;99.90;;;;;;4901384;29;20238;-79
2024/01/03 10:24:19;;;;;;;14.03;11.10;;;9.50;99.90;;;;;;4932134;29;20218;-76
2024/01/03 10:26:46;;;;;;;11.83;10.70;;;9.50;99.90;;;;;;4916841;29;20266;-77
2024/01/03 10:29:18;;;;;;;11.87;10.80;;;9.60;99.90;;;;;;4916072;29;20215;-76
2024/01/03 10:31:47;;;;;;;11.70;10.80;;;9.60;99.90;;;;;;4916204;29;20279;-79
2024/01/03 10:34:20;;;;;;;12.43;11.43;;;9.60;99.90;;;;;;4916166;29;20219;-78
2024/01/03 10:36:51;;;;;;;12.00;11.10;;;9.60;99.90;;;;;;4905718;29;20227;-76
2024/01/03 10:39:20;;;;;;;12.03;10.83;;;9.70;99.90;;;;;;4931767;29;20744;-77
2024/01/03 10:41:48;;;;;;;12.90;11.57;;;9.70;99.90;;;;;;4932340;29;20197;-75
2024/01/03 10:44:17;;;;;;;12.47;10.70;;;9.60;99.90;;;;;;4931268;29;20680;-79
2024/01/03 10:46:46;;;;;;;12.20;10.93;;;9.50;99.90;;;;;;4921295;29;20216;-77
2024/01/03 10:49:13;;;;;;;11.20;10.30;;;9.60;99.90;;;;;;4915397;29;20905;-78
2024/01/03 10:51:43;;;;;;;12.17;10.77;;;9.80;99.90;;;;;;4918972;29;20200;-75
2024/01/03 10:54:15;;;;;;;11.97;10.93;;;9.90;99.90;;;;;;4903436;29;20189;-76
2024/01/03 10:56:50;;;;;;;12.37;11.37;;;10.00;99.90;;;;;;4904883;29;20212;-76
2024/01/03 10:59:21;;;;;;;11.33;10.60;;;10.00;99.90;;;;;;4900035;29;20199;-76
2024/01/03 11:02:05;;;;;;;13.87;11.97;;;9.90;99.90;;;;;;4932194;29;20260;-77
2024/01/03 11:05:02;;;;;;;13.07;11.87;;;10.00;99.90;;;;;;4912962;29;20575;-78
2024/01/03 11:07:50;;;;;;;12.20;11.23;;;10.20;99.90;;;;;;4915065;29;20212;-79
2024/01/03 11:10:45;;;;;;;12.67;11.73;;;11.30;99.90;;;;;;4915586;29;20704;-79
2024/01/03 11:13:40;;;;;;;13.60;12.50;;;14.70;99.90;;;;;;4924568;29;20243;-79
2024/01/03 11:16:37;;;;;;;13.82;12.73;;;14.70;99.90;;;;;;4941417;29;20207;-79
2024/01/03 11:19:07;;;;;;;14.80;13.55;;;13.70;99.90;;;;;;4933798;29;20203;-79
2024/01/03 11:21:37;;;;;;;14.05;13.20;;;12.50;99.90;;;;;;4950593;29;20672;-78
2024/01/03 11:24:27;;;;;;;13.18;12.38;;;12.20;99.90;;;;;;4933350;29;20207;-76
2024/01/03 11:26:55;;;;;;;13.93;12.93;;;12.10;99.90;;;;;;4949945;29;20226;-79
2024/01/03 11:29:35;;;;;;;14.02;13.18;;;12.00;99.90;;;;;;4930859;29;20206;-78
2024/01/03 11:32:09;;;;;;;15.97;14.37;;;11.50;99.90;;;;;;4953565;29;20560;-78
2024/01/03 11:34:39;;;;;;;14.70;13.50;;;11.20;99.90;;;;;;4954630;29;20204;-78
2024/01/03 11:37:26;;;;;;;14.87;13.50;;;11.10;99.90;;;;;;4937629;29;20255;-78
2024/01/03 11:39:55;;;;;;;14.77;13.60;;;11.00;99.90;;;;;;4939438;29;20217;-76
2024/01/03 11:42:32;;;;;;;14.87;13.53;;;10.90;99.90;;;;;;4954472;29;20335;-80
2024/01/03 11:45:04;;;;;;;15.27;13.73;;;10.90;99.90;;;;;;4935037;29;20255;-77
2024/01/03 11:47:35;;;;;;;14.33;13.10;;;10.90;99.90;;;;;;4949663;29;20230;-79
2024/01/03 11:50:07;;;;;;;14.33;13.13;;;10.90;99.90;;;;;;4936734;29;20298;-77
2024/01/03 11:52:37;;;;;;;13.93;13.07;;;10.90;99.90;;;;;;4940765;29;20216;-79
2024/01/03 11:55:10;;;;;;;13.60;12.70;;;10.90;99.90;;;;;;4939098;29;20656;-79
2024/01/03 11:57:49;;;;;;;14.33;13.23;;;10.90;99.90;;;;;;4953333;29;20207;-78
2024/01/03 12:00:20;;;;;;;14.30;13.20;;;10.90;99.90;;;;;;4938821;29;20206;-80
2024/01/03 12:02:56;;;;;;;14.00;12.90;;;10.80;99.90;;;;;;4921642;29;20206;-80
2024/01/03 12:05:25;;;;;;;15.30;13.83;;;10.90;99.90;;;;;;4936863;29;20214;-76
2024/01/03 12:07:54;;;;;;;13.87;12.90;;;10.90;99.90;;;;;;4938251;28;20270;-76
2024/01/03 12:10:22;;;;;;;14.07;12.97;;;11.20;99.90;;;;;;4953627;29;20218;-78
2024/01/03 12:12:52;;;;;;;14.63;13.43;;;11.40;99.90;;;;;;4932257;29;20334;-80
2024/01/03 12:15:28;;;;;;;13.83;12.80;;;11.70;99.90;;;;;;4937142;29;20212;-80
2024/01/03 12:18:05;;;;;;;14.27;13.13;;;11.70;99.90;;;;;;4900827;29;20200;-77
2024/01/03 12:20:34;;;;;;;14.33;13.23;;;11.70;99.90;;;;;;4917605;29;20204;-78
2024/01/03 12:23:14;;;;;;;14.80;13.90;;;11.50;99.90;;;;;;4922955;29;20211;-78
2024/01/03 12:25:43;;;;;;;13.57;12.67;;;11.20;99.90;;;;;;4914193;29;20699;-79
2024/01/03 12:28:17;;;;;;;16.80;13.73;;;11.00;99.90;;;;;;4926682;29;20200;-76
2024/01/03 12:30:44;;;;;;;14.30;13.20;;;11.00;99.90;;;;;;4934361;29;20212;-78
2024/01/03 12:33:15;;;;;;;14.63;13.20;;;10.90;99.90;;;;;;4931391;29;20912;-79
2024/01/03 12:35:48;;;;;;;15.10;13.57;;;10.90;99.90;;;;;;4932006;29;20259;-78
2024/01/03 12:38:15;;;;;;;14.07;13.17;;;10.90;99.90;;;;;;4935778;29;20713;-78
2024/01/03 12:40:43;;;;;;;16.50;13.97;;;10.90;99.90;;;;;;4930535;29;20209;-79
2024/01/03 12:43:11;;;;;;;14.63;13.10;;;10.90;99.90;;;;;;4938407;29;20223;-75